sensor_id;sensor_type;location;lat;lon;timestamp;P1;durP1;ratioP1;P2;durP2;ratioP2
24008;SDS011;12217;50.792;4.372;2023-03-26T00:00:22;22.10;;;4.38;;
24008;SDS011;12217;50.792;4.372;2023-03-26T00:02:48;15.85;;;3.53;;
24008;SDS011;12217;50.792;4.372;2023-03-26T00:05:14;21.05;;;4.03;;
24008;SDS011;12217;50.792;4.372;2023-03-26T00:07:39;19.48;;;4.18;;
24008;SDS011;12217;50.792;4.372;2023-03-26T00:10:05;19.98;;;4.38;;
24008;SDS011;12217;50.792;4.372;2023-03-26T00:12:31;22.90;;;4.68;;
24008;SDS011;12217;50.792;4.372;2023-03-26T00:14:57;23.13;;;4.88;;
24008;SDS011;12217;50.792;4.372;2023-03-26T00:17:22;20.73;;;4.20;;
24008;SDS011;12217;50.792;4.372;2023-03-26T00:19:48;27.92;;;4.95;;
24008;SDS011;12217;50.792;4.372;2023-03-26T00:22:14;27.08;;;5.20;;
24008;SDS011;12217;50.792;4.372;2023-03-26T00:24:41;24.33;;;4.63;;
24008;SDS011;12217;50.792;4.372;2023-03-26T00:27:09;25.00;;;5.10;;
24008;SDS011;12217;50.792;4.372;2023-03-26T00:29:36;28.75;;;4.80;;
24008;SDS011;12217;50.792;4.372;2023-03-26T00:32:04;30.77;;;4.55;;
24008;SDS011;12217;50.792;4.372;2023-03-26T00:34:30;23.13;;;4.90;;
24008;SDS011;12217;50.792;4.372;2023-03-26T00:36:58;24.10;;;5.57;;
24008;SDS011;12217;50.792;4.372;2023-03-26T00:39:26;25.52;;;4.90;;
24008;SDS011;12217;50.792;4.372;2023-03-26T00:41:53;22.15;;;4.65;;
24008;SDS011;12217;50.792;4.372;2023-03-26T00:44:19;23.30;;;5.07;;
24008;SDS011;12217;50.792;4.372;2023-03-26T00:46:45;26.60;;;5.15;;
24008;SDS011;12217;50.792;4.372;2023-03-26T00:49:11;23.48;;;5.38;;
24008;SDS011;12217;50.792;4.372;2023-03-26T00:51:38;29.75;;;5.35;;
24008;SDS011;12217;50.792;4.372;2023-03-26T00:54:05;28.92;;;5.70;;
24008;SDS011;12217;50.792;4.372;2023-03-26T00:56:33;18.98;;;5.20;;
24008;SDS011;12217;50.792;4.372;2023-03-26T00:58:59;31.50;;;5.80;;
24008;SDS011;12217;50.792;4.372;2023-03-26T01:01:26;31.02;;;5.85;;
24008;SDS011;12217;50.792;4.372;2023-03-26T01:03:53;31.60;;;6.72;;
24008;SDS011;12217;50.792;4.372;2023-03-26T01:08:57;25.63;;;6.82;;
24008;SDS011;12217;50.792;4.372;2023-03-26T01:11:29;21.92;;;5.45;;
24008;SDS011;12217;50.792;4.372;2023-03-26T01:13:58;24.70;;;5.47;;
24008;SDS011;12217;50.792;4.372;2023-03-26T01:18:58;24.92;;;5.30;;
24008;SDS011;12217;50.792;4.372;2023-03-26T01:21:25;23.55;;;5.35;;
24008;SDS011;12217;50.792;4.372;2023-03-26T01:29:23;26.08;;;6.07;;
24008;SDS011;12217;50.792;4.372;2023-03-26T01:37:41;24.05;;;5.88;;
24008;SDS011;12217;50.792;4.372;2023-03-26T01:43:05;28.35;;;6.05;;
24008;SDS011;12217;50.792;4.372;2023-03-26T01:45:52;29.88;;;7.03;;
24008;SDS011;12217;50.792;4.372;2023-03-26T01:48:18;27.35;;;5.93;;
24008;SDS011;12217;50.792;4.372;2023-03-26T01:50:44;24.20;;;5.65;;
24008;SDS011;12217;50.792;4.372;2023-03-26T01:53:10;28.80;;;6.63;;
24008;SDS011;12217;50.792;4.372;2023-03-26T01:55:43;25.45;;;4.90;;
24008;SDS011;12217;50.792;4.372;2023-03-26T01:58:23;30.20;;;6.18;;
24008;SDS011;12217;50.792;4.372;2023-03-26T02:01:26;24.00;;;5.07;;
24008;SDS011;12217;50.792;4.372;2023-03-26T02:04:00;26.48;;;5.45;;
24008;SDS011;12217;50.792;4.372;2023-03-26T02:06:40;27.88;;;5.47;;
24008;SDS011;12217;50.792;4.372;2023-03-26T02:09:13;20.15;;;5.10;;
24008;SDS011;12217;50.792;4.372;2023-03-26T02:11:44;24.50;;;5.18;;
24008;SDS011;12217;50.792;4.372;2023-03-26T02:14:11;21.00;;;4.38;;
24008;SDS011;12217;50.792;4.372;2023-03-26T02:16:38;28.85;;;5.05;;
24008;SDS011;12217;50.792;4.372;2023-03-26T02:19:04;26.63;;;5.45;;
24008;SDS011;12217;50.792;4.372;2023-03-26T02:21:29;22.85;;;4.93;;
24008;SDS011;12217;50.792;4.372;2023-03-26T02:23:58;24.88;;;4.80;;
24008;SDS011;12217;50.792;4.372;2023-03-26T02:26:27;25.13;;;5.15;;
24008;SDS011;12217;50.792;4.372;2023-03-26T02:28:54;27.40;;;5.18;;
24008;SDS011;12217;50.792;4.372;2023-03-26T02:31:21;22.48;;;5.18;;
24008;SDS011;12217;50.792;4.372;2023-03-26T02:33:50;17.58;;;4.50;;
24008;SDS011;12217;50.792;4.372;2023-03-26T02:36:16;15.98;;;4.88;;
24008;SDS011;12217;50.792;4.372;2023-03-26T02:38:46;25.27;;;5.03;;
24008;SDS011;12217;50.792;4.372;2023-03-26T02:41:11;17.05;;;4.82;;
24008;SDS011;12217;50.792;4.372;2023-03-26T02:43:37;18.25;;;4.78;;
24008;SDS011;12217;50.792;4.372;2023-03-26T02:46:03;17.77;;;4.40;;
24008;SDS011;12217;50.792;4.372;2023-03-26T02:48:28;21.67;;;4.40;;
24008;SDS011;12217;50.792;4.372;2023-03-26T02:50:55;23.95;;;5.07;;
24008;SDS011;12217;50.792;4.372;2023-03-26T02:53:21;21.77;;;4.65;;
24008;SDS011;12217;50.792;4.372;2023-03-26T02:55:47;16.27;;;4.43;;
24008;SDS011;12217;50.792;4.372;2023-03-26T02:58:13;15.57;;;4.57;;
24008;SDS011;12217;50.792;4.372;2023-03-26T03:00:42;18.85;;;4.40;;
24008;SDS011;12217;50.792;4.372;2023-03-26T03:03:10;28.98;;;5.38;;
24008;SDS011;12217;50.792;4.372;2023-03-26T03:05:35;13.75;;;4.45;;
24008;SDS011;12217;50.792;4.372;2023-03-26T03:08:02;22.33;;;5.35;;
24008;SDS011;12217;50.792;4.372;2023-03-26T03:10:30;19.80;;;5.07;;
24008;SDS011;12217;50.792;4.372;2023-03-26T03:12:56;25.63;;;4.45;;
24008;SDS011;12217;50.792;4.372;2023-03-26T03:15:23;23.50;;;5.45;;
24008;SDS011;12217;50.792;4.372;2023-03-26T03:17:49;18.92;;;4.80;;
24008;SDS011;12217;50.792;4.372;2023-03-26T03:20:15;28.48;;;5.45;;
24008;SDS011;12217;50.792;4.372;2023-03-26T03:22:41;22.25;;;5.00;;
24008;SDS011;12217;50.792;4.372;2023-03-26T03:25:07;23.13;;;4.68;;
24008;SDS011;12217;50.792;4.372;2023-03-26T03:27:38;16.05;;;4.70;;
24008;SDS011;12217;50.792;4.372;2023-03-26T03:30:07;18.92;;;4.65;;
24008;SDS011;12217;50.792;4.372;2023-03-26T03:32:34;18.40;;;3.88;;
24008;SDS011;12217;50.792;4.372;2023-03-26T03:35:00;21.42;;;4.60;;
24008;SDS011;12217;50.792;4.372;2023-03-26T03:37:26;24.35;;;4.57;;
24008;SDS011;12217;50.792;4.372;2023-03-26T03:39:52;23.92;;;4.60;;
24008;SDS011;12217;50.792;4.372;2023-03-26T03:42:17;19.75;;;3.88;;
24008;SDS011;12217;50.792;4.372;2023-03-26T03:44:43;18.55;;;5.10;;
24008;SDS011;12217;50.792;4.372;2023-03-26T03:47:08;21.02;;;4.35;;
24008;SDS011;12217;50.792;4.372;2023-03-26T03:49:37;21.35;;;4.50;;
24008;SDS011;12217;50.792;4.372;2023-03-26T03:52:06;15.48;;;4.00;;
24008;SDS011;12217;50.792;4.372;2023-03-26T03:54:32;17.67;;;4.30;;
24008;SDS011;12217;50.792;4.372;2023-03-26T03:56:57;18.83;;;4.53;;
24008;SDS011;12217;50.792;4.372;2023-03-26T03:59:23;23.55;;;5.22;;
24008;SDS011;12217;50.792;4.372;2023-03-26T04:01:49;22.80;;;4.63;;
24008;SDS011;12217;50.792;4.372;2023-03-26T04:04:15;22.40;;;4.20;;
24008;SDS011;12217;50.792;4.372;2023-03-26T04:06:41;19.88;;;3.72;;
24008;SDS011;12217;50.792;4.372;2023-03-26T04:09:07;17.58;;;3.88;;
24008;SDS011;12217;50.792;4.372;2023-03-26T04:11:34;15.35;;;3.75;;
24008;SDS011;12217;50.792;4.372;2023-03-26T04:14:00;23.77;;;4.18;;
24008;SDS011;12217;50.792;4.372;2023-03-26T04:16:26;20.25;;;4.22;;
24008;SDS011;12217;50.792;4.372;2023-03-26T04:18:51;20.80;;;4.35;;
24008;SDS011;12217;50.792;4.372;2023-03-26T04:21:17;21.52;;;4.35;;
24008;SDS011;12217;50.792;4.372;2023-03-26T04:23:43;19.55;;;4.88;;
24008;SDS011;12217;50.792;4.372;2023-03-26T04:26:11;21.02;;;3.72;;
24008;SDS011;12217;50.792;4.372;2023-03-26T04:28:52;19.58;;;3.95;;
24008;SDS011;12217;50.792;4.372;2023-03-26T04:31:26;18.80;;;3.67;;
24008;SDS011;12217;50.792;4.372;2023-03-26T04:33:53;15.98;;;3.50;;
24008;SDS011;12217;50.792;4.372;2023-03-26T04:36:42;17.40;;;3.83;;
24008;SDS011;12217;50.792;4.372;2023-03-26T04:39:10;24.27;;;4.10;;
24008;SDS011;12217;50.792;4.372;2023-03-26T04:41:37;18.92;;;3.67;;
24008;SDS011;12217;50.792;4.372;2023-03-26T04:44:03;19.65;;;4.32;;
24008;SDS011;12217;50.792;4.372;2023-03-26T04:46:29;13.15;;;3.55;;
24008;SDS011;12217;50.792;4.372;2023-03-26T04:48:57;19.05;;;3.72;;
24008;SDS011;12217;50.792;4.372;2023-03-26T04:51:25;18.67;;;3.75;;
24008;SDS011;12217;50.792;4.372;2023-03-26T04:53:58;20.98;;;3.42;;
24008;SDS011;12217;50.792;4.372;2023-03-26T04:59:11;17.80;;;3.80;;
24008;SDS011;12217;50.792;4.372;2023-03-26T05:01:40;15.15;;;3.28;;
24008;SDS011;12217;50.792;4.372;2023-03-26T05:04:09;21.40;;;3.95;;
24008;SDS011;12217;50.792;4.372;2023-03-26T05:06:36;11.77;;;2.80;;
24008;SDS011;12217;50.792;4.372;2023-03-26T05:09:03;14.10;;;3.13;;
24008;SDS011;12217;50.792;4.372;2023-03-26T05:11:29;10.63;;;2.50;;
24008;SDS011;12217;50.792;4.372;2023-03-26T05:13:55;13.15;;;2.88;;
24008;SDS011;12217;50.792;4.372;2023-03-26T05:16:21;7.55;;;2.40;;
24008;SDS011;12217;50.792;4.372;2023-03-26T05:18:48;9.45;;;2.90;;
24008;SDS011;12217;50.792;4.372;2023-03-26T05:21:13;22.25;;;3.58;;
24008;SDS011;12217;50.792;4.372;2023-03-26T05:23:39;12.13;;;3.20;;
24008;SDS011;12217;50.792;4.372;2023-03-26T05:26:05;10.98;;;2.88;;
24008;SDS011;12217;50.792;4.372;2023-03-26T05:28:31;11.75;;;3.10;;
24008;SDS011;12217;50.792;4.372;2023-03-26T05:30:57;14.70;;;3.15;;
24008;SDS011;12217;50.792;4.372;2023-03-26T05:33:25;13.82;;;2.80;;
24008;SDS011;12217;50.792;4.372;2023-03-26T05:36:03;10.88;;;2.65;;
24008;SDS011;12217;50.792;4.372;2023-03-26T05:38:33;15.32;;;2.97;;
24008;SDS011;12217;50.792;4.372;2023-03-26T05:41:00;15.82;;;3.22;;
24008;SDS011;12217;50.792;4.372;2023-03-26T05:43:27;13.82;;;3.10;;
24008;SDS011;12217;50.792;4.372;2023-03-26T05:45:53;14.43;;;3.38;;
24008;SDS011;12217;50.792;4.372;2023-03-26T05:48:18;16.02;;;2.80;;
24008;SDS011;12217;50.792;4.372;2023-03-26T05:50:46;13.52;;;3.10;;
24008;SDS011;12217;50.792;4.372;2023-03-26T05:53:16;9.98;;;2.83;;
24008;SDS011;12217;50.792;4.372;2023-03-26T05:55:46;11.77;;;2.92;;
24008;SDS011;12217;50.792;4.372;2023-03-26T06:01:04;12.20;;;2.92;;
24008;SDS011;12217;50.792;4.372;2023-03-26T06:03:40;11.90;;;3.00;;
24008;SDS011;12217;50.792;4.372;2023-03-26T06:06:12;11.23;;;2.92;;
24008;SDS011;12217;50.792;4.372;2023-03-26T06:08:43;10.40;;;2.28;;
24008;SDS011;12217;50.792;4.372;2023-03-26T06:11:13;13.32;;;2.65;;
24008;SDS011;12217;50.792;4.372;2023-03-26T06:13:40;11.10;;;2.42;;
24008;SDS011;12217;50.792;4.372;2023-03-26T06:16:07;14.98;;;3.00;;
24008;SDS011;12217;50.792;4.372;2023-03-26T06:18:33;12.05;;;2.70;;
24008;SDS011;12217;50.792;4.372;2023-03-26T06:21:00;9.57;;;2.60;;
24008;SDS011;12217;50.792;4.372;2023-03-26T06:23:27;13.85;;;2.67;;
24008;SDS011;12217;50.792;4.372;2023-03-26T06:25:53;10.98;;;2.70;;
24008;SDS011;12217;50.792;4.372;2023-03-26T06:28:20;9.40;;;2.88;;
24008;SDS011;12217;50.792;4.372;2023-03-26T06:30:45;9.90;;;2.55;;
24008;SDS011;12217;50.792;4.372;2023-03-26T06:33:11;8.70;;;2.47;;
24008;SDS011;12217;50.792;4.372;2023-03-26T06:35:37;9.48;;;2.85;;
24008;SDS011;12217;50.792;4.372;2023-03-26T06:38:03;9.60;;;2.50;;
24008;SDS011;12217;50.792;4.372;2023-03-26T06:40:29;11.68;;;2.53;;
24008;SDS011;12217;50.792;4.372;2023-03-26T06:42:54;9.70;;;2.10;;
24008;SDS011;12217;50.792;4.372;2023-03-26T06:45:21;11.25;;;2.03;;
24008;SDS011;12217;50.792;4.372;2023-03-26T06:47:47;4.38;;;1.50;;
24008;SDS011;12217;50.792;4.372;2023-03-26T06:50:12;8.07;;;2.10;;
24008;SDS011;12217;50.792;4.372;2023-03-26T06:52:38;6.90;;;1.88;;
24008;SDS011;12217;50.792;4.372;2023-03-26T06:55:04;6.80;;;2.15;;
24008;SDS011;12217;50.792;4.372;2023-03-26T06:57:32;6.63;;;1.90;;
24008;SDS011;12217;50.792;4.372;2023-03-26T06:59:58;6.82;;;1.90;;
24008;SDS011;12217;50.792;4.372;2023-03-26T07:02:23;8.43;;;2.13;;
24008;SDS011;12217;50.792;4.372;2023-03-26T07:04:49;7.20;;;1.60;;
24008;SDS011;12217;50.792;4.372;2023-03-26T07:07:15;4.57;;;1.48;;
24008;SDS011;12217;50.792;4.372;2023-03-26T07:09:42;6.20;;;1.50;;
24008;SDS011;12217;50.792;4.372;2023-03-26T07:12:08;11.43;;;5.57;;
24008;SDS011;12217;50.792;4.372;2023-03-26T07:14:33;4.63;;;1.42;;
24008;SDS011;12217;50.792;4.372;2023-03-26T07:17:02;4.80;;;1.58;;
24008;SDS011;12217;50.792;4.372;2023-03-26T07:19:28;3.70;;;1.48;;
24008;SDS011;12217;50.792;4.372;2023-03-26T07:21:53;8.73;;;1.75;;
24008;SDS011;12217;50.792;4.372;2023-03-26T07:24:20;4.82;;;1.40;;
24008;SDS011;12217;50.792;4.372;2023-03-26T07:34:52;8.20;;;1.50;;
24008;SDS011;12217;50.792;4.372;2023-03-26T07:38:32;4.78;;;1.50;;
24008;SDS011;12217;50.792;4.372;2023-03-26T07:45:40;5.28;;;1.63;;
24008;SDS011;12217;50.792;4.372;2023-03-26T07:48:20;4.43;;;1.60;;
24008;SDS011;12217;50.792;4.372;2023-03-26T07:50:54;4.40;;;1.50;;
24008;SDS011;12217;50.792;4.372;2023-03-26T07:53:20;4.55;;;1.42;;
24008;SDS011;12217;50.792;4.372;2023-03-26T07:55:58;5.40;;;1.58;;
24008;SDS011;12217;50.792;4.372;2023-03-26T08:06:44;9.82;;;1.80;;
24008;SDS011;12217;50.792;4.372;2023-03-26T08:20:50;7.30;;;1.30;;
24008;SDS011;12217;50.792;4.372;2023-03-26T08:23:26;4.30;;;1.45;;
24008;SDS011;12217;50.792;4.372;2023-03-26T08:31:07;6.55;;;1.67;;
24008;SDS011;12217;50.792;4.372;2023-03-26T08:33:37;2.88;;;1.45;;
24008;SDS011;12217;50.792;4.372;2023-03-26T08:36:04;3.50;;;1.45;;
24008;SDS011;12217;50.792;4.372;2023-03-26T08:38:31;5.90;;;1.48;;
24008;SDS011;12217;50.792;4.372;2023-03-26T09:15:23;4.72;;;1.70;;
24008;SDS011;12217;50.792;4.372;2023-03-26T09:21:06;4.30;;;1.63;;
24008;SDS011;12217;50.792;4.372;2023-03-26T09:29:25;3.42;;;1.60;;
24008;SDS011;12217;50.792;4.372;2023-03-26T09:32:19;4.07;;;2.00;;
24008;SDS011;12217;50.792;4.372;2023-03-26T09:48:15;5.25;;;2.00;;
24008;SDS011;12217;50.792;4.372;2023-03-26T09:56:53;3.03;;;2.00;;
24008;SDS011;12217;50.792;4.372;2023-03-26T10:04:44;3.92;;;2.25;;
24008;SDS011;12217;50.792;4.372;2023-03-26T10:10:07;3.03;;;1.80;;
24008;SDS011;12217;50.792;4.372;2023-03-26T10:30:27;3.88;;;2.75;;
24008;SDS011;12217;50.792;4.372;2023-03-26T10:35:43;6.15;;;2.15;;
24008;SDS011;12217;50.792;4.372;2023-03-26T10:41:19;2.97;;;2.00;;
24008;SDS011;12217;50.792;4.372;2023-03-26T10:52:48;4.60;;;1.77;;
24008;SDS011;12217;50.792;4.372;2023-03-26T11:01:00;3.20;;;2.30;;
24008;SDS011;12217;50.792;4.372;2023-03-26T11:15:06;2.75;;;2.10;;
24008;SDS011;12217;50.792;4.372;2023-03-26T11:17:37;3.72;;;2.13;;
24008;SDS011;12217;50.792;4.372;2023-03-26T11:20:37;3.42;;;1.90;;
24008;SDS011;12217;50.792;4.372;2023-03-26T11:28:59;4.07;;;2.25;;
24008;SDS011;12217;50.792;4.372;2023-03-26T11:31:59;3.45;;;2.47;;
24008;SDS011;12217;50.792;4.372;2023-03-26T11:37:25;3.53;;;2.28;;
24008;SDS011;12217;50.792;4.372;2023-03-26T11:40:17;4.32;;;2.15;;
24008;SDS011;12217;50.792;4.372;2023-03-26T11:42:49;4.50;;;2.47;;
24008;SDS011;12217;50.792;4.372;2023-03-26T11:45:21;4.30;;;2.88;;
24008;SDS011;12217;50.792;4.372;2023-03-26T11:47:55;4.40;;;2.63;;
24008;SDS011;12217;50.792;4.372;2023-03-26T11:50:46;3.15;;;2.50;;
24008;SDS011;12217;50.792;4.372;2023-03-26T11:53:18;2.92;;;2.20;;
24008;SDS011;12217;50.792;4.372;2023-03-26T11:58:28;4.03;;;2.50;;
24008;SDS011;12217;50.792;4.372;2023-03-26T12:01:11;3.15;;;2.25;;
24008;SDS011;12217;50.792;4.372;2023-03-26T12:03:39;4.00;;;2.22;;
24008;SDS011;12217;50.792;4.372;2023-03-26T12:06:09;3.80;;;2.58;;
24008;SDS011;12217;50.792;4.372;2023-03-26T12:08:49;3.08;;;2.20;;
24008;SDS011;12217;50.792;4.372;2023-03-26T12:11:15;3.22;;;2.40;;
24008;SDS011;12217;50.792;4.372;2023-03-26T12:13:50;4.30;;;2.60;;
24008;SDS011;12217;50.792;4.372;2023-03-26T12:16:19;5.65;;;2.55;;
24008;SDS011;12217;50.792;4.372;2023-03-26T12:18:46;5.88;;;2.72;;
24008;SDS011;12217;50.792;4.372;2023-03-26T12:21:22;4.38;;;2.30;;
24008;SDS011;12217;50.792;4.372;2023-03-26T12:24:01;3.90;;;2.25;;
24008;SDS011;12217;50.792;4.372;2023-03-26T12:28:55;4.05;;;2.30;;
24008;SDS011;12217;50.792;4.372;2023-03-26T12:31:21;3.83;;;2.15;;
24008;SDS011;12217;50.792;4.372;2023-03-26T12:34:35;3.10;;;1.98;;
24008;SDS011;12217;50.792;4.372;2023-03-26T12:36:45;2.65;;;1.90;;
24008;SDS011;12217;50.792;4.372;2023-03-26T12:39:28;4.22;;;2.50;;
24008;SDS011;12217;50.792;4.372;2023-03-26T12:42:05;4.15;;;2.85;;
24008;SDS011;12217;50.792;4.372;2023-03-26T12:44:50;3.70;;;2.30;;
24008;SDS011;12217;50.792;4.372;2023-03-26T12:49:56;4.43;;;2.80;;
24008;SDS011;12217;50.792;4.372;2023-03-26T12:58:06;4.35;;;3.28;;
24008;SDS011;12217;50.792;4.372;2023-03-26T13:03:18;5.10;;;3.20;;
24008;SDS011;12217;50.792;4.372;2023-03-26T13:19:13;7.25;;;4.28;;
24008;SDS011;12217;50.792;4.372;2023-03-26T13:21:56;6.00;;;3.65;;
24008;SDS011;12217;50.792;4.372;2023-03-26T13:24:31;4.88;;;3.67;;
24008;SDS011;12217;50.792;4.372;2023-03-26T13:27:15;4.40;;;3.30;;
24008;SDS011;12217;50.792;4.372;2023-03-26T13:48:51;3.90;;;1.90;;
24008;SDS011;12217;50.792;4.372;2023-03-26T13:51:23;2.50;;;1.77;;
24008;SDS011;12217;50.792;4.372;2023-03-26T13:54:13;4.30;;;1.90;;
24008;SDS011;12217;50.792;4.372;2023-03-26T13:57:04;3.30;;;1.83;;
24008;SDS011;12217;50.792;4.372;2023-03-26T13:59:39;4.82;;;2.10;;
24008;SDS011;12217;50.792;4.372;2023-03-26T14:02:18;2.95;;;1.88;;
24008;SDS011;12217;50.792;4.372;2023-03-26T14:05:28;1.63;;;1.23;;
24008;SDS011;12217;50.792;4.372;2023-03-26T14:08:04;3.00;;;1.52;;
24008;SDS011;12217;50.792;4.372;2023-03-26T14:10:48;1.67;;;1.40;;
24008;SDS011;12217;50.792;4.372;2023-03-26T14:13:28;2.13;;;1.67;;
24008;SDS011;12217;50.792;4.372;2023-03-26T14:27:23;2.60;;;2.35;;
24008;SDS011;12217;50.792;4.372;2023-03-26T14:32:56;2.88;;;2.15;;
24008;SDS011;12217;50.792;4.372;2023-03-26T14:35:35;2.50;;;2.20;;
24008;SDS011;12217;50.792;4.372;2023-03-26T14:41:17;2.72;;;2.53;;
24008;SDS011;12217;50.792;4.372;2023-03-26T14:52:00;3.88;;;2.95;;
24008;SDS011;12217;50.792;4.372;2023-03-26T14:54:51;4.57;;;3.78;;
24008;SDS011;12217;50.792;4.372;2023-03-26T15:19:54;6.63;;;5.38;;
24008;SDS011;12217;50.792;4.372;2023-03-26T15:22:13;5.57;;;5.03;;
24008;SDS011;12217;50.792;4.372;2023-03-26T15:28:04;7.63;;;6.47;;
24008;SDS011;12217;50.792;4.372;2023-03-26T15:42:16;8.52;;;7.22;;
24008;SDS011;12217;50.792;4.372;2023-03-26T15:45:02;10.10;;;8.02;;
24008;SDS011;12217;50.792;4.372;2023-03-26T15:47:47;9.70;;;8.55;;
24008;SDS011;12217;50.792;4.372;2023-03-26T15:52:52;9.82;;;8.30;;
24008;SDS011;12217;50.792;4.372;2023-03-26T16:03:31;9.85;;;8.85;;
24008;SDS011;12217;50.792;4.372;2023-03-26T16:16:58;12.60;;;7.22;;
24008;SDS011;12217;50.792;4.372;2023-03-26T16:19:30;10.90;;;6.97;;
24008;SDS011;12217;50.792;4.372;2023-03-26T16:22:34;12.50;;;7.18;;
24008;SDS011;12217;50.792;4.372;2023-03-26T16:28:05;14.50;;;7.20;;
24008;SDS011;12217;50.792;4.372;2023-03-26T16:30:34;14.18;;;7.22;;
24008;SDS011;12217;50.792;4.372;2023-03-26T16:33:13;15.27;;;7.18;;
24008;SDS011;12217;50.792;4.372;2023-03-26T16:36:01;13.95;;;6.90;;
24008;SDS011;12217;50.792;4.372;2023-03-26T16:39:10;12.40;;;6.80;;
24008;SDS011;12217;50.792;4.372;2023-03-26T16:44:04;17.58;;;7.30;;
24008;SDS011;12217;50.792;4.372;2023-03-26T16:47:01;14.30;;;6.90;;
24008;SDS011;12217;50.792;4.372;2023-03-26T17:00:41;15.90;;;6.93;;
24008;SDS011;12217;50.792;4.372;2023-03-26T17:03:32;18.75;;;7.30;;
24008;SDS011;12217;50.792;4.372;2023-03-26T17:06:10;15.43;;;6.60;;
24008;SDS011;12217;50.792;4.372;2023-03-26T17:11:21;16.40;;;6.85;;
24008;SDS011;12217;50.792;4.372;2023-03-26T17:16:41;21.42;;;8.02;;
24008;SDS011;12217;50.792;4.372;2023-03-26T17:27:18;20.63;;;7.07;;
24008;SDS011;12217;50.792;4.372;2023-03-26T17:38:52;24.25;;;8.27;;
24008;SDS011;12217;50.792;4.372;2023-03-26T17:40:55;25.08;;;11.23;;
24008;SDS011;12217;50.792;4.372;2023-03-26T17:43:44;18.98;;;7.78;;
24008;SDS011;12217;50.792;4.372;2023-03-26T17:51:40;21.10;;;6.30;;
24008;SDS011;12217;50.792;4.372;2023-03-26T17:54:32;18.10;;;5.65;;
24008;SDS011;12217;50.792;4.372;2023-03-26T17:56:59;15.80;;;5.13;;
24008;SDS011;12217;50.792;4.372;2023-03-26T17:59:30;13.98;;;4.82;;
24008;SDS011;12217;50.792;4.372;2023-03-26T18:01:58;16.10;;;4.93;;
24008;SDS011;12217;50.792;4.372;2023-03-26T18:04:34;16.60;;;5.90;;
24008;SDS011;12217;50.792;4.372;2023-03-26T18:09:59;18.05;;;6.47;;
24008;SDS011;12217;50.792;4.372;2023-03-26T18:20:35;17.33;;;6.10;;
24008;SDS011;12217;50.792;4.372;2023-03-26T18:23:07;23.52;;;9.48;;
24008;SDS011;12217;50.792;4.372;2023-03-26T18:25:34;20.33;;;9.50;;
24008;SDS011;12217;50.792;4.372;2023-03-26T18:28:00;17.77;;;7.55;;
24008;SDS011;12217;50.792;4.372;2023-03-26T18:30:26;21.92;;;7.78;;
24008;SDS011;12217;50.792;4.372;2023-03-26T18:32:56;19.40;;;9.43;;
24008;SDS011;12217;50.792;4.372;2023-03-26T18:35:26;15.13;;;6.90;;
24008;SDS011;12217;50.792;4.372;2023-03-26T18:38:05;13.93;;;5.80;;
24008;SDS011;12217;50.792;4.372;2023-03-26T18:40:39;15.27;;;5.27;;
24008;SDS011;12217;50.792;4.372;2023-03-26T18:43:12;16.95;;;5.35;;
24008;SDS011;12217;50.792;4.372;2023-03-26T18:45:41;18.67;;;5.65;;
24008;SDS011;12217;50.792;4.372;2023-03-26T18:50:51;15.20;;;4.00;;
24008;SDS011;12217;50.792;4.372;2023-03-26T18:53:19;16.20;;;4.85;;
24008;SDS011;12217;50.792;4.372;2023-03-26T18:55:47;12.35;;;3.90;;
24008;SDS011;12217;50.792;4.372;2023-03-26T19:01:00;17.30;;;4.90;;
24008;SDS011;12217;50.792;4.372;2023-03-26T19:03:39;18.08;;;3.78;;
24008;SDS011;12217;50.792;4.372;2023-03-26T19:06:09;14.05;;;4.25;;
24008;SDS011;12217;50.792;4.372;2023-03-26T19:08:38;16.20;;;4.72;;
24008;SDS011;12217;50.792;4.372;2023-03-26T19:11:06;19.05;;;4.10;;
24008;SDS011;12217;50.792;4.372;2023-03-26T19:13:34;11.23;;;3.75;;
24008;SDS011;12217;50.792;4.372;2023-03-26T19:16:01;14.93;;;3.80;;
24008;SDS011;12217;50.792;4.372;2023-03-26T19:18:32;17.70;;;4.53;;
24008;SDS011;12217;50.792;4.372;2023-03-26T19:21:00;15.95;;;4.07;;
24008;SDS011;12217;50.792;4.372;2023-03-26T19:23:37;10.10;;;4.25;;
24008;SDS011;12217;50.792;4.372;2023-03-26T19:26:05;18.30;;;4.18;;
24008;SDS011;12217;50.792;4.372;2023-03-26T19:31:15;11.77;;;3.95;;
24008;SDS011;12217;50.792;4.372;2023-03-26T19:33:56;11.40;;;3.63;;
24008;SDS011;12217;50.792;4.372;2023-03-26T19:36:27;13.77;;;3.33;;
24008;SDS011;12217;50.792;4.372;2023-03-26T19:41:24;14.10;;;3.33;;
24008;SDS011;12217;50.792;4.372;2023-03-26T19:43:54;18.48;;;3.40;;
24008;SDS011;12217;50.792;4.372;2023-03-26T19:46:23;10.60;;;3.15;;
24008;SDS011;12217;50.792;4.372;2023-03-26T19:48:54;10.05;;;2.95;;
24008;SDS011;12217;50.792;4.372;2023-03-26T19:51:30;13.18;;;3.45;;
24008;SDS011;12217;50.792;4.372;2023-03-26T19:54:00;12.85;;;2.85;;
24008;SDS011;12217;50.792;4.372;2023-03-26T19:56:39;8.98;;;2.80;;
24008;SDS011;12217;50.792;4.372;2023-03-26T19:59:07;15.05;;;3.28;;
24008;SDS011;12217;50.792;4.372;2023-03-26T20:01:33;13.02;;;2.55;;
24008;SDS011;12217;50.792;4.372;2023-03-26T20:04:00;10.95;;;3.08;;
24008;SDS011;12217;50.792;4.372;2023-03-26T20:06:30;18.33;;;3.17;;
24008;SDS011;12217;50.792;4.372;2023-03-26T20:08:57;12.55;;;2.63;;
24008;SDS011;12217;50.792;4.372;2023-03-26T20:11:33;11.00;;;2.80;;
24008;SDS011;12217;50.792;4.372;2023-03-26T20:14:23;10.25;;;2.65;;
24008;SDS011;12217;50.792;4.372;2023-03-26T20:16:50;11.10;;;2.72;;
24008;SDS011;12217;50.792;4.372;2023-03-26T20:19:16;11.82;;;2.90;;
24008;SDS011;12217;50.792;4.372;2023-03-26T20:21:42;9.15;;;2.92;;
24008;SDS011;12217;50.792;4.372;2023-03-26T20:24:17;6.78;;;2.20;;
24008;SDS011;12217;50.792;4.372;2023-03-26T20:26:45;10.60;;;2.92;;
24008;SDS011;12217;50.792;4.372;2023-03-26T20:29:11;10.35;;;2.45;;
24008;SDS011;12217;50.792;4.372;2023-03-26T20:31:37;10.75;;;2.40;;
24008;SDS011;12217;50.792;4.372;2023-03-26T20:34:07;8.85;;;2.47;;
24008;SDS011;12217;50.792;4.372;2023-03-26T20:36:41;18.00;;;4.53;;
24008;SDS011;12217;50.792;4.372;2023-03-26T20:39:07;10.75;;;3.40;;
24008;SDS011;12217;50.792;4.372;2023-03-26T20:41:33;8.98;;;2.40;;
24008;SDS011;12217;50.792;4.372;2023-03-26T20:44:04;12.15;;;3.08;;
24008;SDS011;12217;50.792;4.372;2023-03-26T20:46:37;12.45;;;2.63;;
24008;SDS011;12217;50.792;4.372;2023-03-26T20:49:02;11.15;;;2.38;;
24008;SDS011;12217;50.792;4.372;2023-03-26T20:51:30;6.80;;;2.15;;
24008;SDS011;12217;50.792;4.372;2023-03-26T20:53:56;8.57;;;2.40;;
24008;SDS011;12217;50.792;4.372;2023-03-26T20:56:22;7.13;;;2.45;;
24008;SDS011;12217;50.792;4.372;2023-03-26T20:58:47;12.15;;;2.50;;
24008;SDS011;12217;50.792;4.372;2023-03-26T21:01:13;11.25;;;2.10;;
24008;SDS011;12217;50.792;4.372;2023-03-26T21:03:41;8.20;;;2.05;;
24008;SDS011;12217;50.792;4.372;2023-03-26T21:06:09;9.80;;;2.05;;
24008;SDS011;12217;50.792;4.372;2023-03-26T21:08:39;16.97;;;5.00;;
24008;SDS011;12217;50.792;4.372;2023-03-26T21:11:51;9.32;;;2.42;;
24008;SDS011;12217;50.792;4.372;2023-03-26T21:14:24;10.38;;;2.03;;
24008;SDS011;12217;50.792;4.372;2023-03-26T21:16:51;11.98;;;2.55;;
24008;SDS011;12217;50.792;4.372;2023-03-26T21:19:17;6.95;;;2.10;;
24008;SDS011;12217;50.792;4.372;2023-03-26T21:22:28;8.02;;;2.20;;
24008;SDS011;12217;50.792;4.372;2023-03-26T21:27:19;9.68;;;1.88;;
24008;SDS011;12217;50.792;4.372;2023-03-26T21:29:52;9.43;;;1.95;;
24008;SDS011;12217;50.792;4.372;2023-03-26T21:32:19;11.18;;;2.53;;
24008;SDS011;12217;50.792;4.372;2023-03-26T21:34:46;9.02;;;2.42;;